createdAt,value
2019-01-29T00:00:36.051Z,101384.22
2019-01-29T00:03:16.696Z,101383.63
2019-01-29T00:05:57.315Z,101389.32
2019-01-29T00:08:38.706Z,101384.18
2019-01-29T00:11:19.690Z,101394.90
2019-01-29T00:14:01.689Z,101393.22
2019-01-29T00:16:42.679Z,101408.75
2019-01-29T00:19:23.845Z,101409.23
2019-01-29T00:22:04.764Z,101414.96
2019-01-29T00:24:45.405Z,101421.97
2019-01-29T00:27:26.140Z,101428.61
2019-01-29T00:30:06.846Z,101435.37
2019-01-29T00:32:47.667Z,101427.91
2019-01-29T00:35:28.674Z,101435.96
2019-01-29T00:38:09.925Z,101438.17
2019-01-29T00:40:51.158Z,101444.69
2019-01-29T00:43:32.488Z,101443.17
2019-01-29T00:46:13.622Z,101450.19
2019-01-29T00:48:54.385Z,101447.88
2019-01-29T00:51:35.219Z,101454.50
2019-01-29T00:54:16.122Z,101455.00
2019-01-29T00:56:57.292Z,101461.20
2019-01-29T00:59:38.373Z,101459.58
2019-01-29T01:02:18.945Z,101462.45
2019-01-29T01:05:00.471Z,101469.09
2019-01-29T01:07:41.627Z,101473.28
2019-01-29T01:10:22.767Z,101492.52
2019-01-29T01:13:03.351Z,101502.66
2019-01-29T01:15:44.317Z,101508.28
2019-01-29T01:18:25.152Z,101512.69
2019-01-29T01:21:06.047Z,101507.34
2019-01-29T01:23:47.201Z,101506.27
2019-01-29T01:26:28.197Z,101512.53
2019-01-29T01:29:09.144Z,101518.44
2019-01-29T01:31:50.258Z,101520.19
2019-01-29T01:34:31.059Z,101520.69
2019-01-29T01:37:12.025Z,101525.41
2019-01-29T01:39:53.268Z,101524.90
2019-01-29T01:42:34.083Z,101530.76
2019-01-29T01:45:15.312Z,101532.70
2019-01-29T01:47:56.209Z,101549.68
2019-01-29T01:50:37.391Z,101556.19
2019-01-29T01:53:18.436Z,101558.11
2019-01-29T01:55:59.645Z,101565.08
2019-01-29T01:58:40.514Z,101563.19
2019-01-29T02:01:21.387Z,101563.52
2019-01-29T02:04:02.523Z,101571.20
2019-01-29T02:06:43.496Z,101566.27
2019-01-29T02:09:24.459Z,101572.37
2019-01-29T02:12:05.446Z,101574.80
2019-01-29T02:14:46.357Z,101576.03
2019-01-29T02:17:27.286Z,101581.92
2019-01-29T02:20:07.747Z,101592.14
2019-01-29T02:22:48.737Z,101596.89
2019-01-29T02:25:29.417Z,101598.69
2019-01-29T02:28:10.905Z,101601.94
2019-01-29T02:30:51.825Z,101602.42
2019-01-29T02:33:33.090Z,101599.88
2019-01-29T02:36:13.745Z,101606.55
2019-01-29T02:38:55.048Z,101605.88
2019-01-29T02:41:36.334Z,101615.88
2019-01-29T02:44:17.677Z,101617.02
2019-01-29T02:46:58.589Z,101625.16
2019-01-29T02:49:39.495Z,101632.23
2019-01-29T02:52:20.578Z,101632.72
2019-01-29T02:55:01.862Z,101640.97
2019-01-29T02:57:42.834Z,101622.57
2019-01-29T03:00:23.788Z,101623.19
2019-01-29T03:03:04.460Z,101627.30
2019-01-29T03:05:45.134Z,101636.28
2019-01-29T03:08:25.779Z,101647.31
2019-01-29T03:11:06.663Z,101650.09
2019-01-29T03:13:47.361Z,101654.89
2019-01-29T03:16:28.131Z,101660.89
2019-01-29T03:19:08.837Z,101668.00
2019-01-29T03:21:49.770Z,101674.79
2019-01-29T03:24:30.962Z,101672.97
2019-01-29T03:27:11.486Z,101685.53
2019-01-29T03:29:52.358Z,101682.70
2019-01-29T03:32:33.426Z,101697.25
2019-01-29T03:35:14.559Z,101700.70
2019-01-29T03:37:55.600Z,101695.27
2019-01-29T03:40:36.548Z,101699.30
2019-01-29T03:43:17.216Z,101704.41
2019-01-29T03:45:58.095Z,101702.23
2019-01-29T03:48:39.021Z,101705.54
2019-01-29T03:51:19.891Z,101713.25
2019-01-29T03:54:00.701Z,101706.03
2019-01-29T03:56:41.079Z,101707.98
2019-01-29T03:59:22.255Z,101710.45
2019-01-29T04:02:02.714Z,101707.77
2019-01-29T04:04:43.890Z,101712.02
2019-01-29T04:07:24.542Z,101704.52
2019-01-29T04:10:04.830Z,101705.95
2019-01-29T04:12:45.771Z,101708.28
2019-01-29T04:15:26.868Z,101710.92
2019-01-29T04:18:07.287Z,101705.52
2019-01-29T04:20:48.423Z,101699.52
2019-01-29T04:23:29.509Z,101697.22
2019-01-29T04:26:10.342Z,101695.34
2019-01-29T04:28:51.004Z,101693.77
2019-01-29T04:31:31.598Z,101698.60
2019-01-29T04:34:11.930Z,101710.64
2019-01-29T04:36:52.804Z,101711.25
2019-01-29T04:39:33.247Z,101712.63
2019-01-29T04:42:13.733Z,101704.70
2019-01-29T04:44:53.688Z,101698.64
2019-01-29T04:47:34.434Z,101687.95
2019-01-29T04:50:15.362Z,101678.52
2019-01-29T04:52:55.265Z,101662.36
2019-01-29T04:55:35.301Z,101657.58
2019-01-29T04:58:16.070Z,101655.13
2019-01-29T05:00:56.452Z,101656.66
2019-01-29T05:03:37.016Z,101651.33
2019-01-29T05:06:17.357Z,101649.00
2019-01-29T05:08:57.601Z,101643.09
2019-01-29T05:11:38.384Z,101629.66
2019-01-29T05:14:18.855Z,101625.94
2019-01-29T05:17:00.883Z,101620.90
2019-01-29T05:19:41.345Z,101628.34
2019-01-29T05:22:21.864Z,101639.53
2019-01-29T05:25:02.235Z,101646.82
2019-01-29T05:27:42.825Z,101648.52
2019-01-29T05:30:23.423Z,101640.41
2019-01-29T05:33:04.270Z,101635.70
2019-01-29T05:35:44.401Z,101625.86
2019-01-29T05:38:26.757Z,101621.49
2019-01-29T05:41:08.024Z,101623.26
2019-01-29T05:43:48.347Z,101625.24
2019-01-29T05:46:28.499Z,101618.11
2019-01-29T05:49:08.847Z,101623.53
2019-01-29T05:51:49.294Z,101617.80
2019-01-29T05:54:29.795Z,101617.26
2019-01-29T05:57:10.196Z,101609.89
2019-01-29T05:59:50.876Z,101610.74
2019-01-29T06:02:31.256Z,101606.91
2019-01-29T06:05:11.362Z,101607.72
2019-01-29T06:07:51.647Z,101602.70
2019-01-29T06:10:32.654Z,101604.84
2019-01-29T06:13:12.737Z,101592.89
2019-01-29T06:15:52.926Z,101600.48
2019-01-29T06:18:33.595Z,101597.98
2019-01-29T06:21:13.549Z,101600.00
2019-01-29T06:23:53.958Z,101593.98
2019-01-29T06:26:34.491Z,101595.69
2019-01-29T06:29:14.637Z,101591.47
2019-01-29T06:31:55.643Z,101584.20
2019-01-29T06:34:35.411Z,101581.70
2019-01-29T06:37:15.923Z,101580.77
2019-01-29T06:39:56.792Z,101574.39
2019-01-29T06:42:36.935Z,101569.06
2019-01-29T06:45:17.697Z,101562.92
2019-01-29T06:47:57.902Z,101554.55
2019-01-29T06:50:38.931Z,101557.23
2019-01-29T06:53:19.323Z,101554.64
2019-01-29T06:56:00.275Z,101557.47
2019-01-29T06:58:40.751Z,101557.91
2019-01-29T07:01:20.902Z,101549.75
2019-01-29T07:04:04.069Z,101541.21
2019-01-29T07:06:44.354Z,101531.16
2019-01-29T07:09:24.664Z,101525.08
2019-01-29T07:12:04.692Z,101512.41
2019-01-29T07:14:45.033Z,101504.92
2019-01-29T07:17:25.734Z,101502.56
2019-01-29T07:20:05.827Z,101496.24
2019-01-29T07:22:46.430Z,101498.24
2019-01-29T07:25:27.612Z,101484.40
2019-01-29T07:28:08.030Z,101481.72
2019-01-29T07:30:48.623Z,101485.41
2019-01-29T07:33:29.393Z,101488.48
2019-01-29T07:36:09.487Z,101471.61
2019-01-29T07:38:49.478Z,101465.92
2019-01-29T07:41:29.901Z,101470.13
2019-01-29T07:44:11.576Z,101465.48
2019-01-29T07:46:52.788Z,101451.59
2019-01-29T07:49:33.586Z,101452.43
2019-01-29T07:52:14.046Z,101443.48
2019-01-29T07:54:54.864Z,101442.16
2019-01-29T07:57:36.546Z,101440.17
2019-01-29T08:00:16.901Z,101439.34
2019-01-29T08:02:56.965Z,101437.18
2019-01-29T09:14:15.005Z,101367.20
2019-01-29T09:16:55.763Z,101360.21
2019-01-29T09:19:37.154Z,101366.09
2019-01-29T09:22:17.669Z,101360.73
2019-01-29T09:24:57.964Z,101362.11
2019-01-29T09:27:38.039Z,101360.25
2019-01-29T09:30:18.384Z,101358.09
2019-01-29T09:33:00.197Z,101356.73
2019-01-29T09:35:40.793Z,101352.91
2019-01-29T09:38:21.241Z,101359.37
2019-01-29T09:41:01.475Z,101361.41
2019-01-29T09:43:41.505Z,101361.25
2019-01-29T09:46:22.194Z,101353.61
2019-01-29T09:49:02.028Z,101357.44
2019-01-29T09:51:42.394Z,101356.27
2019-01-29T09:54:23.244Z,101353.95
2019-01-29T09:57:05.007Z,101359.95
2019-01-29T09:59:45.990Z,101363.92
2019-01-29T10:02:27.318Z,101368.91
2019-01-29T10:05:07.435Z,101365.91
2019-01-29T10:07:48.947Z,101359.73
2019-01-29T10:10:30.443Z,101365.06
2019-01-29T10:13:10.983Z,101373.55
2019-01-29T10:15:51.086Z,101372.72
2019-01-29T10:18:31.169Z,101373.50
2019-01-29T10:21:11.605Z,101370.85
2019-01-29T10:23:52.964Z,101378.19
2019-01-29T10:26:33.626Z,101370.87
2019-01-29T10:29:14.679Z,101376.05
2019-01-29T10:37:27.758Z,101377.73
2019-01-29T10:40:08.158Z,101386.05
2019-01-29T10:42:49.075Z,101388.38
2019-01-29T10:45:29.444Z,101383.19
2019-01-29T10:48:10.307Z,101388.69
2019-01-29T10:50:51.059Z,101385.84
2019-01-29T10:53:32.069Z,101385.09
2019-01-29T10:56:12.828Z,101395.06
2019-01-29T10:58:53.284Z,101386.83
2019-01-29T11:01:33.809Z,101388.27
2019-01-29T11:04:14.197Z,101391.23
2019-01-29T11:06:55.086Z,101390.33
2019-01-29T11:09:35.427Z,101377.00
2019-01-29T11:12:16.086Z,101375.19
2019-01-29T11:14:56.961Z,101372.12
2019-01-29T11:17:38.045Z,101376.67
2019-01-29T11:20:18.512Z,101380.45
2019-01-29T11:22:59.277Z,101367.73
2019-01-29T11:25:39.833Z,101366.55
2019-01-29T11:28:20.548Z,101362.70
2019-01-29T11:31:01.072Z,101360.62
2019-01-29T11:33:41.737Z,101358.02
2019-01-29T11:36:22.196Z,101356.11
2019-01-29T11:39:02.449Z,101354.20
2019-01-29T11:41:43.158Z,101355.70
2019-01-29T11:44:23.607Z,101361.29
2019-01-29T11:47:04.182Z,101357.62
2019-01-29T11:49:45.445Z,101362.34
2019-01-29T11:52:25.838Z,101363.14
2019-01-29T11:55:06.165Z,101352.55
2019-01-29T11:57:46.935Z,101361.41
2019-01-29T12:00:27.881Z,101356.59
2019-01-29T12:03:08.872Z,101354.92
2019-01-29T12:05:49.627Z,101356.66
2019-01-29T12:08:30.452Z,101358.46
2019-01-29T12:11:11.365Z,101359.48
2019-01-29T12:13:52.126Z,101367.59
2019-01-29T12:16:33.116Z,101360.83
2019-01-29T12:19:13.465Z,101361.76
2019-01-29T12:21:53.793Z,101364.54
2019-01-29T12:24:34.144Z,101366.16
2019-01-29T12:27:14.768Z,101370.87
2019-01-29T12:29:55.887Z,101369.09
2019-01-29T12:32:36.311Z,101360.84
2019-01-29T12:35:17.062Z,101364.09
2019-01-29T12:37:57.910Z,101366.29
2019-01-29T12:40:38.400Z,101368.80
2019-01-29T12:43:19.223Z,101365.29
2019-01-29T12:45:59.728Z,101365.66
2019-01-29T12:48:39.891Z,101365.05
2019-01-29T12:51:21.563Z,101367.22
2019-01-29T12:54:04.678Z,101368.02
2019-01-29T12:56:45.234Z,101377.10
2019-01-29T12:59:25.533Z,101379.37
2019-01-29T13:02:07.920Z,101375.87
2019-01-29T13:04:48.757Z,101376.91
2019-01-29T13:07:29.563Z,101381.20
2019-01-29T13:10:10.613Z,101383.41
2019-01-29T13:12:50.801Z,101383.83
2019-01-29T13:15:30.996Z,101395.73
2019-01-29T13:18:12.157Z,101398.76
2019-01-29T13:20:52.036Z,101408.96
2019-01-29T13:23:32.486Z,101409.52
2019-01-29T13:26:13.118Z,101415.73
2019-01-29T13:28:54.054Z,101416.80
2019-01-29T13:31:34.158Z,101423.57
2019-01-29T13:34:18.281Z,101431.36
2019-01-29T13:36:58.720Z,101437.47
2019-01-29T13:39:39.410Z,101433.76
2019-01-29T13:42:19.585Z,101440.50
2019-01-29T13:45:00.322Z,101442.34
2019-01-29T13:47:41.615Z,101443.92
2019-01-29T13:50:25.209Z,101449.54
2019-01-29T13:53:10.398Z,101456.11
2019-01-29T13:55:51.739Z,101465.64
2019-01-29T13:58:32.225Z,101465.58
2019-01-29T14:01:13.389Z,101462.05
2019-01-29T14:03:55.083Z,101458.66
2019-01-29T14:06:35.837Z,101465.19
2019-01-29T14:09:16.817Z,101480.02
2019-01-29T14:11:59.713Z,101481.15
2019-01-29T14:14:41.825Z,101484.93
2019-01-29T14:17:26.078Z,101490.17
2019-01-29T14:20:06.611Z,101488.31
2019-01-29T14:22:50.133Z,101493.31
2019-01-29T14:25:33.465Z,101502.85
2019-01-29T14:28:17.080Z,101506.98
2019-01-29T14:30:59.670Z,101495.39
2019-01-29T14:33:42.876Z,101498.39
2019-01-29T14:36:29.314Z,101499.32
2019-01-29T14:39:11.443Z,101504.73
2019-01-29T14:41:51.732Z,101513.55
2019-01-29T14:44:35.395Z,101515.24
2019-01-29T14:47:16.611Z,101508.79
2019-01-29T14:49:56.879Z,101513.66
2019-01-29T14:52:37.490Z,101512.16
2019-01-29T14:55:17.906Z,101504.67
2019-01-29T14:57:58.072Z,101509.17
2019-01-29T15:00:38.526Z,101511.06
2019-01-29T15:03:19.842Z,101507.98
2019-01-29T15:06:01.006Z,101501.70
2019-01-29T15:08:41.468Z,101512.08
2019-01-29T15:11:22.643Z,101512.53
2019-01-29T15:14:09.489Z,101514.94
2019-01-29T15:16:50.793Z,101517.77
2019-01-29T15:19:31.922Z,101513.14
2019-01-29T15:22:13.044Z,101521.08
2019-01-29T15:24:54.766Z,101532.70
2019-01-29T15:27:42.512Z,101523.08
2019-01-29T15:30:27.904Z,101499.81
2019-01-29T15:33:17.487Z,101513.84
2019-01-29T15:35:59.224Z,101523.24
2019-01-29T15:38:42.625Z,101519.84
2019-01-29T15:41:22.945Z,101520.80
2019-01-29T15:44:03.356Z,101520.77
2019-01-29T15:46:43.922Z,101526.54
2019-01-29T15:49:24.589Z,101521.49
2019-01-29T15:52:05.358Z,101519.32
2019-01-29T15:54:45.637Z,101516.80
2019-01-29T15:57:26.325Z,101518.19
2019-01-29T16:00:06.655Z,101516.41
2019-01-29T16:02:47.334Z,101514.09
2019-01-29T16:05:28.515Z,101519.57
2019-01-29T16:08:09.040Z,101519.38
2019-01-29T16:10:49.329Z,101512.64
2019-01-29T16:13:29.685Z,101518.11
2019-01-29T16:16:10.356Z,101512.89
2019-01-29T16:18:50.399Z,101521.10
2019-01-29T16:21:30.759Z,101521.85
2019-01-29T16:24:10.927Z,101525.77
2019-01-29T16:27:06.437Z,101523.89
2019-01-29T16:29:42.170Z,101521.08
2019-01-29T16:32:22.361Z,101508.92
2019-01-29T16:35:02.889Z,101510.13
2019-01-29T16:37:44.046Z,101511.16
2019-01-29T16:40:24.728Z,101512.00
2019-01-29T16:43:05.400Z,101518.72
2019-01-29T16:45:45.855Z,101512.61
2019-01-29T16:48:27.085Z,101515.69
2019-01-29T16:51:11.512Z,101512.61
2019-01-29T16:53:52.668Z,101521.00
2019-01-29T16:56:32.869Z,101519.75
2019-01-29T16:59:13.707Z,101517.59
2019-01-29T17:01:53.962Z,101510.98
2019-01-29T17:04:34.316Z,101513.12
2019-01-29T17:07:15.006Z,101513.03
2019-01-29T17:09:55.643Z,101513.97
2019-01-29T17:12:37.575Z,101517.00
2019-01-29T17:15:18.126Z,101522.31
2019-01-29T17:17:59.100Z,101526.61
2019-01-29T17:20:39.870Z,101521.67
2019-01-29T17:23:20.520Z,101524.41
2019-01-29T17:26:01.078Z,101516.86
2019-01-29T17:28:41.743Z,101523.48
2019-01-29T17:31:21.929Z,101528.56
2019-01-29T17:34:02.662Z,101538.73
2019-01-29T17:36:43.650Z,101530.11
2019-01-29T17:39:24.534Z,101524.52
2019-01-29T17:42:04.456Z,101521.30
2019-01-29T17:44:45.642Z,101535.09
2019-01-29T17:47:26.508Z,101523.02
2019-01-29T17:50:06.764Z,101515.03
2019-01-29T17:52:47.445Z,101530.35
2019-01-29T17:55:27.251Z,101529.83
2019-01-29T17:58:08.369Z,101530.52
2019-01-29T18:00:49.227Z,101527.81
2019-01-29T18:03:29.368Z,101516.91
2019-01-29T18:06:09.528Z,101513.38
2019-01-29T18:08:50.173Z,101508.09
2019-01-29T18:11:30.555Z,101513.54
2019-01-29T18:14:11.118Z,101512.25
2019-01-29T18:16:54.776Z,101505.41
2019-01-29T18:19:35.124Z,101506.59
2019-01-29T18:22:15.838Z,101508.96
2019-01-29T18:24:55.907Z,101504.12
2019-01-29T18:27:36.798Z,101507.72
2019-01-29T18:30:16.852Z,101518.78
2019-01-29T18:32:57.627Z,101529.20
2019-01-29T18:35:38.377Z,101538.73
2019-01-29T18:38:18.990Z,101531.38
2019-01-29T18:41:00.207Z,101526.53
2019-01-29T18:43:41.425Z,101519.25
2019-01-29T18:46:22.471Z,101522.33
2019-01-29T18:49:02.964Z,101520.56
2019-01-29T18:51:43.722Z,101519.02
2019-01-29T18:54:25.003Z,101514.17
2019-01-29T18:57:06.297Z,101524.99
2019-01-29T18:59:47.276Z,101540.23
2019-01-29T19:02:27.649Z,101540.98
2019-01-29T19:05:07.884Z,101542.07
2019-01-29T19:07:49.046Z,101536.94
2019-01-29T19:10:29.876Z,101534.17
2019-01-29T19:13:10.443Z,101545.31
2019-01-29T19:15:52.087Z,101553.98
2019-01-29T19:18:33.003Z,101553.27
2019-01-29T19:21:14.029Z,101549.06
2019-01-29T19:23:55.321Z,101538.13
2019-01-29T19:26:36.204Z,101541.48
2019-01-29T19:29:17.159Z,101534.42
2019-01-29T19:31:57.805Z,101541.11
2019-01-29T19:34:39.085Z,101534.91
2019-01-29T19:37:20.365Z,101533.61
2019-01-29T19:40:01.163Z,101524.31
2019-01-29T19:42:41.975Z,101535.52
2019-01-29T19:45:23.712Z,101532.58
2019-01-29T19:48:04.844Z,101536.11
2019-01-29T19:50:46.123Z,101528.87
2019-01-29T19:53:26.924Z,101525.50
2019-01-29T19:56:07.889Z,101513.77
2019-01-29T19:58:49.049Z,101509.86
2019-01-29T20:01:30.282Z,101502.03
2019-01-29T20:04:11.244Z,101496.59
2019-01-29T20:06:51.557Z,101494.04
2019-01-29T20:09:32.505Z,101500.77
2019-01-29T20:12:13.559Z,101496.27
2019-01-29T20:14:54.525Z,101498.50
2019-01-29T20:17:35.724Z,101496.94
2019-01-29T20:20:16.922Z,101497.52
2019-01-29T20:23:07.389Z,101495.33
2019-01-29T20:25:40.205Z,101496.30
2019-01-29T20:28:21.284Z,101495.28
2019-01-29T20:31:02.210Z,101487.00
2019-01-29T20:33:43.091Z,101477.93
2019-01-29T20:36:24.369Z,101472.08
2019-01-29T20:39:05.329Z,101466.42
2019-01-29T20:41:46.216Z,101464.34
2019-01-29T20:44:27.707Z,101469.12
2019-01-29T20:47:09.163Z,101472.47
2019-01-29T20:49:49.843Z,101459.69
2019-01-29T20:52:31.082Z,101448.38
2019-01-29T20:55:12.090Z,101448.36
2019-01-29T20:57:53.361Z,101454.32
2019-01-29T21:00:34.680Z,101455.92
2019-01-29T21:03:15.706Z,101459.33
2019-01-29T21:05:58.156Z,101459.99
2019-01-29T21:08:39.579Z,101458.67
2019-01-29T21:11:20.206Z,101462.98
2019-01-29T21:14:01.397Z,101470.69
2019-01-29T21:16:42.781Z,101466.76
2019-01-29T21:19:24.013Z,101472.78
2019-01-29T21:22:05.447Z,101463.59
2019-01-29T21:24:46.506Z,101467.30
2019-01-29T21:27:28.044Z,101468.45
2019-01-29T21:30:09.032Z,101465.53
2019-01-29T21:32:49.836Z,101456.83
2019-01-29T21:35:30.944Z,101460.70
2019-01-29T21:38:12.214Z,101460.34
2019-01-29T21:40:53.252Z,101453.55
2019-01-29T21:43:34.145Z,101450.30
2019-01-29T21:46:15.729Z,101454.75
2019-01-29T21:48:57.081Z,101455.02
2019-01-29T21:51:37.970Z,101462.72
2019-01-29T21:54:19.100Z,101467.92
2019-01-29T21:57:00.355Z,101459.61
2019-01-29T21:59:41.521Z,101462.22
2019-01-29T22:02:25.020Z,101465.59
2019-01-29T22:05:04.069Z,101467.16
2019-01-29T22:07:45.476Z,101469.37
2019-01-29T22:10:29.166Z,101476.91
2019-01-29T22:13:10.195Z,101471.32
2019-01-29T22:15:51.410Z,101470.48
2019-01-29T22:18:32.506Z,101472.24
2019-01-29T22:21:13.641Z,101472.31
2019-01-29T22:23:54.634Z,101464.70
2019-01-29T22:26:35.912Z,101483.70
2019-01-29T22:29:23.148Z,101491.95
2019-01-29T22:31:58.502Z,101482.19
2019-01-29T22:34:41.593Z,101480.19
2019-01-29T22:37:22.101Z,101478.61
2019-01-29T22:40:03.112Z,101474.57
2019-01-29T22:42:44.207Z,101479.08
2019-01-29T22:45:25.487Z,101477.25
2019-01-29T22:48:06.264Z,101489.23
2019-01-29T22:50:48.366Z,101490.69
2019-01-29T22:53:29.684Z,101493.97
2019-01-29T22:56:10.684Z,101498.37
2019-01-29T22:58:51.560Z,101508.87
2019-01-29T23:01:32.596Z,101512.02
2019-01-29T23:04:13.160Z,101517.73
2019-01-29T23:06:54.770Z,101511.84
2019-01-29T23:09:36.351Z,101517.92
2019-01-29T23:12:17.427Z,101515.33
2019-01-29T23:14:58.601Z,101510.97
2019-01-29T23:17:39.381Z,101526.57
2019-01-29T23:20:22.120Z,101531.03
2019-01-29T23:23:02.394Z,101528.97
2019-01-29T23:25:43.414Z,101532.23
2019-01-29T23:28:24.164Z,101534.78
2019-01-29T23:31:05.333Z,101550.93
2019-01-29T23:33:46.966Z,101554.52
2019-01-29T23:36:27.598Z,101558.84
2019-01-29T23:39:09.163Z,101557.08
2019-01-29T23:41:50.439Z,101560.62
2019-01-29T23:44:32.761Z,101564.35
2019-01-29T23:47:13.768Z,101570.92
2019-01-29T23:49:54.747Z,101569.62
2019-01-29T23:52:35.631Z,101575.03
2019-01-29T23:55:16.557Z,101579.48
2019-01-29T23:57:57.828Z,101585.81
